createdAt,value
2018-04-28T00:00:05.723Z,970.49
2018-04-28T00:01:05.780Z,970.69
2018-04-28T00:02:05.577Z,970.55
2018-04-28T00:03:10.671Z,970.66
2018-04-28T00:04:05.827Z,970.42
2018-04-28T00:05:06.075Z,970.52
2018-04-28T00:06:05.279Z,970.64
2018-04-28T00:07:05.511Z,970.46
2018-04-28T00:08:05.583Z,970.46
2018-04-28T00:09:05.085Z,970.52
2018-04-28T00:10:05.409Z,970.46
2018-04-28T00:11:05.503Z,970.46
2018-04-28T00:12:05.656Z,970.64
2018-04-28T00:13:06.452Z,970.49
2018-04-28T00:14:05.816Z,970.58
2018-04-28T00:15:05.898Z,970.47
2018-04-28T00:16:05.836Z,970.47
2018-04-28T00:17:05.040Z,970.47
2018-04-28T00:18:05.273Z,970.58
2018-04-28T00:19:06.034Z,970.44
2018-04-28T00:20:05.602Z,970.47
2018-04-28T00:21:05.616Z,970.50
2018-04-28T00:22:05.804Z,970.67
2018-04-28T00:23:05.821Z,970.44
2018-04-28T00:24:05.460Z,970.56
2018-04-28T00:25:05.313Z,970.64
2018-04-28T00:26:05.243Z,970.59
2018-04-28T00:27:05.709Z,970.65
2018-04-28T00:28:05.604Z,970.59
2018-04-28T00:29:05.802Z,970.48
2018-04-28T00:30:05.769Z,970.53
2018-04-28T00:31:05.479Z,970.51
2018-04-28T00:32:05.558Z,970.65
2018-04-28T00:33:05.778Z,970.57
2018-04-28T00:34:10.508Z,970.57
2018-04-28T00:35:05.671Z,970.62
2018-04-28T00:36:05.489Z,970.62
2018-04-28T00:37:05.262Z,970.54
2018-04-28T00:38:05.215Z,970.60
2018-04-28T00:39:05.567Z,970.63
2018-04-28T00:40:05.644Z,970.63
2018-04-28T00:41:08.996Z,970.60
2018-04-28T00:42:05.045Z,970.60
2018-04-28T00:43:11.902Z,970.57
2018-04-28T00:44:06.432Z,970.66
2018-04-28T00:45:05.402Z,970.49
2018-04-28T00:46:05.241Z,970.58
2018-04-28T00:47:06.749Z,970.52
2018-04-28T00:48:05.907Z,970.64
2018-04-28T00:49:05.228Z,970.61
2018-04-28T00:50:05.469Z,970.58
2018-04-28T00:51:05.171Z,970.53
2018-04-28T00:52:06.757Z,970.61
2018-04-28T00:53:05.654Z,970.73
2018-04-28T00:54:06.274Z,970.73
2018-04-28T00:55:05.124Z,970.62
2018-04-28T00:56:05.121Z,970.76
2018-04-28T00:57:05.208Z,970.70
2018-04-28T00:58:05.459Z,970.76
2018-04-28T00:59:05.452Z,970.56
2018-04-28T01:00:05.610Z,970.73
2018-04-28T01:01:05.088Z,970.65
2018-04-28T01:02:04.926Z,970.62
2018-04-28T01:03:06.058Z,970.74
2018-04-28T01:04:05.626Z,970.71
2018-04-28T01:05:05.789Z,970.71
2018-04-28T01:06:06.457Z,970.74
2018-04-28T01:07:10.067Z,970.77
2018-04-28T01:08:05.729Z,970.74
2018-04-28T01:09:10.177Z,970.71
2018-04-28T01:10:04.986Z,970.71
2018-04-28T01:11:05.093Z,970.74
2018-04-28T01:12:04.946Z,970.57
2018-04-28T01:13:05.713Z,970.72
2018-04-28T01:14:05.168Z,970.60
2018-04-28T01:15:05.964Z,970.72
2018-04-28T01:16:05.676Z,970.75
2018-04-28T01:17:05.992Z,970.55
2018-04-28T01:18:05.723Z,970.67
2018-04-28T01:19:08.774Z,970.69
2018-04-28T01:20:05.764Z,970.67
2018-04-28T01:21:05.987Z,970.72
2018-04-28T01:22:05.146Z,970.75
2018-04-28T01:23:10.991Z,970.75
2018-04-28T01:24:05.762Z,970.75
2018-04-28T01:25:05.047Z,970.75
2018-04-28T01:26:05.593Z,970.72
2018-04-28T01:27:04.947Z,970.75
2018-04-28T01:28:05.005Z,970.81
2018-04-28T01:29:05.858Z,970.84
2018-04-28T01:30:05.483Z,970.87
2018-04-28T01:31:05.539Z,970.84
2018-04-28T01:32:05.586Z,970.81
2018-04-28T01:33:05.994Z,970.81
2018-04-28T01:34:05.831Z,970.90
2018-04-28T01:35:05.276Z,970.96
2018-04-28T01:36:07.283Z,970.93
2018-04-28T01:37:05.401Z,971.01
2018-04-28T01:38:05.132Z,970.96
2018-04-28T01:39:05.927Z,971.07
2018-04-28T01:40:05.120Z,970.87
2018-04-28T01:41:06.040Z,970.91
2018-04-28T01:42:05.183Z,970.96
2018-04-28T01:43:05.114Z,970.93
2018-04-28T01:44:05.614Z,970.88
2018-04-28T01:45:06.156Z,971.08
2018-04-28T01:46:05.963Z,971.05
2018-04-28T01:47:05.567Z,971.00
2018-04-28T01:48:05.620Z,970.94
2018-04-28T01:49:05.679Z,971.08
2018-04-28T01:50:05.667Z,971.08
2018-04-28T01:51:05.545Z,971.14
2018-04-28T01:52:05.677Z,971.02
2018-04-28T01:53:05.457Z,971.05
2018-04-28T01:54:05.881Z,971.08
2018-04-28T01:55:05.136Z,971.11
2018-04-28T01:56:05.153Z,971.05
2018-04-28T01:57:05.516Z,971.11
2018-04-28T01:58:05.479Z,971.19
2018-04-28T01:59:05.427Z,971.11
2018-04-28T02:00:06.006Z,971.08
2018-04-28T02:01:06.052Z,971.19
2018-04-28T02:02:05.366Z,971.17
2018-04-28T02:03:05.551Z,971.05
2018-04-28T02:04:05.628Z,971.05
2018-04-28T02:05:05.334Z,971.11
2018-04-28T02:06:05.184Z,971.08
2018-04-28T02:07:05.449Z,971.08
2018-04-28T02:08:05.170Z,971.09
2018-04-28T02:09:04.962Z,971.20
2018-04-28T02:10:05.485Z,971.14
2018-04-28T02:11:05.589Z,971.12
2018-04-28T02:12:05.619Z,971.26
2018-04-28T02:13:05.207Z,971.17
2018-04-28T02:14:05.661Z,971.20
2018-04-28T02:15:05.245Z,971.17
2018-04-28T02:16:05.321Z,971.20
2018-04-28T02:17:05.688Z,971.29
2018-04-28T02:18:05.802Z,971.29
2018-04-28T02:19:05.937Z,971.40
2018-04-28T02:20:05.646Z,971.35
2018-04-28T02:21:05.659Z,971.40
2018-04-28T02:22:10.358Z,971.38
2018-04-28T02:23:05.560Z,971.29
2018-04-28T02:24:05.478Z,971.35
2018-04-28T02:25:05.198Z,971.35
2018-04-28T02:26:05.491Z,971.29
2018-04-28T02:27:05.299Z,971.35
2018-04-28T02:28:05.827Z,971.27
2018-04-28T02:29:05.207Z,971.41
2018-04-28T02:30:05.921Z,971.30
2018-04-28T02:31:05.786Z,971.47
2018-04-28T02:32:05.994Z,971.52
2018-04-28T02:33:05.907Z,971.44
2018-04-28T02:34:05.537Z,971.61
2018-04-28T02:35:05.862Z,971.50
2018-04-28T02:36:05.414Z,971.39
2018-04-28T02:37:05.047Z,971.42
2018-04-28T02:38:05.994Z,971.53
2018-04-28T02:39:05.755Z,971.47
2018-04-28T02:40:05.741Z,971.53
2018-04-28T02:41:05.359Z,971.56
2018-04-28T02:42:05.917Z,971.64
2018-04-28T02:43:05.489Z,971.50
2018-04-28T02:44:05.033Z,971.53
2018-04-28T02:45:05.881Z,971.50
2018-04-28T02:46:05.921Z,971.56
2018-04-28T02:47:05.215Z,971.56
2018-04-28T02:48:05.894Z,971.64
2018-04-28T02:49:05.808Z,971.59
2018-04-28T02:50:05.976Z,971.64
2018-04-28T02:51:10.697Z,971.78
2018-04-28T02:52:05.935Z,971.67
2018-04-28T02:53:05.801Z,971.59
2018-04-28T02:54:05.682Z,971.62
2018-04-28T02:55:05.521Z,971.47
2018-04-28T02:56:05.947Z,971.59
2018-04-28T02:57:05.657Z,971.67
2018-04-28T02:58:05.222Z,971.89
2018-04-28T02:59:05.150Z,971.70
2018-04-28T03:00:05.036Z,971.70
2018-04-28T03:01:05.605Z,971.67
2018-04-28T03:02:05.384Z,971.82
2018-04-28T03:03:10.415Z,971.73
2018-04-28T03:04:05.565Z,971.86
2018-04-28T03:05:05.326Z,971.86
2018-04-28T03:06:05.298Z,971.89
2018-04-28T03:07:05.189Z,971.84
2018-04-28T03:08:05.398Z,971.98
2018-04-28T03:09:05.334Z,971.89
2018-04-28T03:10:05.781Z,971.89
2018-04-28T03:11:05.929Z,971.95
2018-04-28T03:12:05.757Z,971.92
2018-04-28T03:13:05.465Z,971.95
2018-04-28T03:14:06.050Z,971.95
2018-04-28T03:15:05.241Z,971.95
2018-04-28T03:16:05.615Z,971.97
2018-04-28T03:17:05.787Z,971.86
2018-04-28T03:18:05.059Z,972.00
2018-04-28T03:19:05.199Z,972.00
2018-04-28T03:20:05.050Z,971.92
2018-04-28T03:21:05.127Z,972.06
2018-04-28T03:22:05.913Z,972.12
2018-04-28T03:23:05.914Z,971.95
2018-04-28T03:24:05.607Z,971.98
2018-04-28T03:25:06.079Z,972.03
2018-04-28T03:26:05.424Z,972.06
2018-04-28T03:27:05.955Z,972.09
2018-04-28T03:28:05.053Z,972.12
2018-04-28T03:29:05.046Z,972.06
2018-04-28T03:30:05.325Z,972.12
2018-04-28T03:31:05.141Z,972.01
2018-04-28T03:32:05.203Z,972.15
2018-04-28T03:33:05.095Z,972.32
2018-04-28T03:34:05.935Z,972.09
2018-04-28T03:35:05.477Z,972.03
2018-04-28T03:36:05.730Z,972.15
2018-04-28T03:37:05.058Z,972.15
2018-04-28T03:38:05.130Z,972.15
2018-04-28T03:39:05.080Z,972.15
2018-04-28T03:40:05.522Z,972.09
2018-04-28T03:41:05.264Z,972.18
2018-04-28T03:42:05.727Z,972.18
2018-04-28T03:43:05.541Z,972.12
2018-04-28T03:44:05.669Z,972.10
2018-04-28T03:45:05.438Z,972.15
2018-04-28T03:46:05.753Z,972.24
2018-04-28T03:47:05.727Z,972.13
2018-04-28T03:48:05.508Z,972.27
2018-04-28T03:49:05.386Z,972.18
2018-04-28T03:50:05.034Z,972.18
2018-04-28T03:51:04.980Z,972.30
2018-04-28T03:52:05.689Z,972.32
2018-04-28T03:53:05.386Z,972.38
2018-04-28T03:54:05.949Z,972.24
2018-04-28T03:55:11.009Z,972.32
2018-04-28T03:56:06.276Z,972.38
2018-04-28T03:57:05.440Z,972.60
2018-04-28T03:58:05.413Z,972.41
2018-04-28T03:59:05.646Z,972.24
2018-04-28T04:00:05.810Z,972.32
2018-04-28T04:01:05.773Z,972.30
2018-04-28T04:02:05.880Z,972.44
2018-04-28T04:03:05.310Z,972.49
2018-04-28T04:04:05.914Z,972.35
2018-04-28T04:05:05.694Z,972.54
2018-04-28T04:06:05.615Z,972.59
2018-04-28T04:07:05.388Z,972.59
2018-04-28T04:08:05.158Z,972.57
2018-04-28T04:09:05.136Z,972.65
2018-04-28T04:10:05.858Z,972.59
2018-04-28T04:11:06.526Z,972.43
2018-04-28T04:12:05.649Z,972.56
2018-04-28T04:13:05.270Z,972.54
2018-04-28T04:14:05.001Z,972.46
2018-04-28T04:15:05.136Z,972.62
2018-04-28T04:16:05.790Z,972.54
2018-04-28T04:17:05.296Z,972.54
2018-04-28T04:18:10.522Z,972.62
2018-04-28T04:19:05.756Z,972.53
2018-04-28T04:20:05.832Z,972.59
2018-04-28T04:21:05.468Z,972.65
2018-04-28T04:22:05.038Z,972.65
2018-04-28T04:23:06.792Z,972.65
2018-04-28T04:24:05.742Z,972.59
2018-04-28T04:25:06.299Z,972.59
2018-04-28T04:26:05.820Z,972.59
2018-04-28T04:27:05.965Z,972.67
2018-04-28T04:28:04.926Z,972.64
2018-04-28T04:29:05.396Z,972.78
2018-04-28T04:30:06.795Z,972.67
2018-04-28T04:31:05.734Z,972.69
2018-04-28T04:32:06.596Z,972.83
2018-04-28T04:33:05.952Z,972.89
2018-04-28T04:34:05.523Z,972.83
2018-04-28T04:35:06.146Z,972.78
2018-04-28T04:36:10.214Z,972.80
2018-04-28T04:37:05.553Z,972.89
2018-04-28T04:38:10.876Z,972.80
2018-04-28T04:39:05.775Z,972.86
2018-04-28T04:40:05.919Z,972.97
2018-04-28T04:41:05.201Z,972.74
2018-04-28T04:42:06.037Z,972.88
2018-04-28T04:43:05.535Z,972.94
2018-04-28T04:44:05.474Z,972.99
2018-04-28T04:45:04.997Z,973.05
2018-04-28T04:46:05.808Z,972.93
2018-04-28T04:47:05.470Z,972.99
2018-04-28T04:48:05.681Z,973.07
2018-04-28T04:49:06.017Z,972.98
2018-04-28T04:50:05.889Z,973.12
2018-04-28T04:51:05.556Z,973.06
2018-04-28T04:52:05.659Z,973.15
2018-04-28T04:53:05.825Z,973.17
2018-04-28T04:54:05.531Z,973.09
2018-04-28T04:55:10.029Z,973.17
2018-04-28T04:56:05.412Z,973.14
2018-04-28T04:57:10.301Z,973.42
2018-04-28T04:58:05.195Z,973.16
2018-04-28T04:59:05.863Z,973.21
2018-04-28T05:00:05.046Z,973.09
2018-04-28T05:01:05.509Z,973.14
2018-04-28T05:02:06.077Z,973.28
2018-04-28T05:03:05.585Z,973.30
2018-04-28T05:04:05.758Z,973.33
2018-04-28T05:05:06.013Z,973.33
2018-04-28T05:06:05.561Z,973.21
2018-04-28T05:07:05.318Z,973.37
2018-04-28T05:08:06.260Z,973.36
2018-04-28T05:09:06.496Z,973.27
2018-04-28T05:10:05.284Z,973.38
2018-04-28T05:11:05.248Z,973.42
2018-04-28T05:12:05.743Z,973.50
2018-04-28T05:13:06.755Z,973.54
2018-04-28T05:14:05.080Z,973.54
2018-04-28T05:15:06.059Z,973.51
2018-04-28T05:16:05.385Z,973.61
2018-04-28T05:17:05.443Z,973.54
2018-04-28T05:18:05.690Z,973.69
2018-04-28T05:19:11.043Z,973.50
2018-04-28T05:20:05.143Z,973.55
2018-04-28T05:21:05.895Z,973.63
2018-04-28T05:22:05.012Z,973.60
2018-04-28T05:23:06.040Z,973.63
2018-04-28T05:24:05.345Z,973.68
2018-04-28T05:25:05.687Z,973.64
2018-04-28T05:26:05.676Z,973.64
2018-04-28T05:27:05.566Z,973.80
2018-04-28T05:28:06.128Z,973.71
2018-04-28T05:29:05.251Z,973.73
2018-04-28T05:30:05.437Z,973.78
2018-04-28T05:31:05.487Z,973.71
2018-04-28T05:32:05.455Z,973.70
2018-04-28T05:33:05.873Z,973.75
2018-04-28T05:34:05.388Z,973.85
2018-04-28T05:35:10.033Z,973.70
2018-04-28T05:36:06.455Z,973.84
2018-04-28T05:37:05.745Z,973.71
2018-04-28T05:38:05.635Z,973.76
2018-04-28T05:39:05.778Z,973.87
2018-04-28T05:40:05.853Z,973.90
2018-04-28T05:41:05.339Z,973.89
2018-04-28T05:42:05.091Z,973.83
2018-04-28T05:43:05.396Z,973.94
2018-04-28T05:44:05.554Z,973.85
2018-04-28T05:45:05.638Z,973.82
2018-04-28T05:46:05.736Z,973.90
2018-04-28T05:47:11.036Z,974.01
2018-04-28T05:48:10.202Z,973.86
2018-04-28T05:49:05.349Z,973.95
2018-04-28T05:50:06.057Z,974.00
2018-04-28T05:51:10.487Z,974.00
2018-04-28T05:52:05.945Z,973.96
2018-04-28T05:53:05.831Z,973.93
2018-04-28T05:54:05.572Z,974.01
2018-04-28T05:55:05.756Z,974.06
2018-04-28T05:56:05.603Z,973.97
2018-04-28T05:57:05.921Z,973.88
2018-04-28T05:58:05.781Z,974.11
2018-04-28T05:59:05.243Z,974.02
2018-04-28T06:00:05.219Z,974.01
2018-04-28T06:01:05.316Z,973.89
2018-04-28T06:02:05.871Z,974.06
2018-04-28T06:03:05.779Z,974.11
2018-04-28T06:04:07.226Z,974.07
2018-04-28T06:05:05.727Z,973.97
2018-04-28T06:06:05.195Z,973.99
2018-04-28T06:07:05.127Z,974.10
2018-04-28T06:08:05.364Z,974.09
2018-04-28T06:09:05.418Z,974.20
2018-04-28T06:10:05.886Z,974.02
2018-04-28T06:11:06.143Z,974.13
2018-04-28T06:12:05.167Z,974.12
2018-04-28T06:13:06.049Z,974.20
2018-04-28T06:14:06.012Z,974.10
2018-04-28T06:15:06.486Z,974.18
2018-04-28T06:16:05.754Z,974.09
2018-04-28T06:17:05.934Z,974.23
2018-04-28T06:18:05.145Z,974.22
2018-04-28T06:19:05.298Z,974.22
2018-04-28T06:20:06.431Z,974.27
2018-04-28T06:21:05.158Z,974.07
2018-04-28T06:22:05.445Z,974.15
2018-04-28T06:23:05.356Z,974.27
2018-04-28T06:24:05.127Z,974.15
2018-04-28T06:25:05.209Z,974.09
2018-04-28T06:26:06.189Z,974.23
2018-04-28T06:27:05.411Z,974.26
2018-04-28T06:28:05.278Z,974.22
2018-04-28T06:29:05.685Z,974.19
2018-04-28T06:30:05.867Z,974.22
2018-04-28T06:31:05.401Z,974.13
2018-04-28T06:32:06.054Z,974.33
2018-04-28T06:33:05.042Z,974.18
2018-04-28T06:34:05.697Z,974.26
2018-04-28T06:35:05.280Z,974.26
2018-04-28T06:36:05.260Z,974.34
2018-04-28T06:37:05.450Z,974.25
2018-04-28T06:38:05.938Z,974.19
2018-04-28T06:39:05.760Z,974.33
2018-04-28T06:40:05.656Z,974.30
2018-04-28T06:41:05.711Z,974.36
2018-04-28T06:42:05.947Z,974.29
2018-04-28T06:43:05.493Z,974.29
2018-04-28T06:44:05.441Z,974.17
2018-04-28T06:45:05.713Z,974.31
2018-04-28T06:46:10.066Z,974.27
2018-04-28T06:47:05.939Z,974.44
2018-04-28T06:48:06.085Z,974.29
2018-04-28T06:49:05.390Z,974.40
2018-04-28T06:50:05.411Z,974.31
2018-04-28T06:51:06.101Z,974.22
2018-04-28T06:52:05.827Z,974.34
2018-04-28T06:53:05.234Z,974.22
2018-04-28T06:54:06.322Z,974.33
2018-04-28T06:55:05.183Z,974.24
2018-04-28T06:56:05.662Z,974.32
2018-04-28T06:57:05.713Z,974.35
2018-04-28T06:58:05.436Z,974.26
2018-04-28T06:59:05.562Z,974.43
2018-04-28T07:00:05.191Z,974.28
2018-04-28T07:01:05.074Z,974.39
2018-04-28T07:02:05.264Z,974.28
2018-04-28T07:03:05.356Z,974.30
2018-04-28T07:04:05.485Z,974.39
2018-04-28T07:05:06.195Z,974.21
2018-04-28T07:06:05.703Z,974.32
2018-04-28T07:07:05.902Z,974.23
2018-04-28T07:08:05.140Z,974.37
2018-04-28T07:09:06.186Z,974.43
2018-04-28T07:10:05.280Z,974.31
2018-04-28T07:11:05.600Z,974.34
2018-04-28T07:12:05.474Z,974.48
2018-04-28T07:13:05.774Z,974.36
2018-04-28T07:14:05.221Z,974.38
2018-04-28T07:15:05.429Z,974.47
2018-04-28T07:16:05.367Z,974.46
2018-04-28T07:17:05.688Z,974.55
2018-04-28T07:18:05.851Z,974.43
2018-04-28T07:19:05.432Z,974.43
2018-04-28T07:20:05.953Z,974.31
2018-04-28T07:21:06.038Z,974.48
2018-04-28T07:22:05.354Z,974.42
2018-04-28T07:23:05.681Z,974.36
2018-04-28T07:24:05.426Z,974.48
2018-04-28T07:25:05.907Z,974.45
2018-04-28T07:26:05.361Z,974.39
2018-04-28T07:27:10.822Z,974.44
2018-04-28T07:28:05.889Z,974.41
2018-04-28T07:29:05.653Z,974.41
2018-04-28T07:30:05.440Z,974.47
2018-04-28T07:31:05.837Z,974.38
2018-04-28T07:32:05.672Z,974.44
2018-04-28T07:33:06.156Z,974.41
2018-04-28T07:34:05.488Z,974.47
2018-04-28T07:35:05.174Z,974.41
2018-04-28T07:36:06.179Z,974.52
2018-04-28T07:37:05.240Z,974.49
2018-04-28T07:38:05.730Z,974.58
2018-04-28T07:39:05.003Z,974.46
2018-04-28T07:40:05.416Z,974.40
2018-04-28T07:41:06.352Z,974.55
2018-04-28T07:42:05.742Z,974.46
2018-04-28T07:43:05.932Z,974.49
2018-04-28T07:44:05.088Z,974.48
2018-04-28T07:45:05.275Z,974.45
2018-04-28T07:46:06.082Z,974.54
2018-04-28T07:47:05.857Z,974.51
2018-04-28T07:48:05.097Z,974.39
2018-04-28T07:49:05.313Z,974.48
2018-04-28T07:50:05.709Z,974.59
2018-04-28T07:51:05.858Z,974.59
2018-04-28T07:52:05.925Z,974.42
2018-04-28T07:53:05.988Z,974.45
2018-04-28T07:54:05.224Z,974.56
2018-04-28T07:55:05.327Z,974.47
2018-04-28T07:56:06.006Z,974.45
2018-04-28T07:57:05.648Z,974.45
2018-04-28T07:58:05.826Z,974.45
2018-04-28T07:59:05.999Z,974.39
2018-04-28T08:00:05.622Z,974.53
2018-04-28T08:01:05.300Z,974.45
2018-04-28T08:02:05.321Z,974.50
2018-04-28T08:03:05.272Z,974.53
2018-04-28T08:04:05.297Z,974.45
2018-04-28T08:05:10.464Z,974.47
2018-04-28T08:06:05.625Z,974.44
2018-04-28T08:07:05.298Z,974.41
2018-04-28T08:08:04.974Z,974.35
2018-04-28T08:09:05.772Z,974.47
2018-04-28T08:10:05.549Z,974.41
2018-04-28T08:11:05.780Z,974.44
2018-04-28T08:12:05.569Z,974.44
2018-04-28T08:13:06.235Z,974.38
2018-04-28T08:14:05.119Z,974.50
2018-04-28T08:15:05.660Z,974.56
2018-04-28T08:16:05.480Z,974.59
2018-04-28T08:17:07.734Z,974.44
2018-04-28T08:18:05.857Z,974.47
2018-04-28T08:19:10.599Z,974.50
2018-04-28T08:20:10.180Z,974.44
2018-04-28T08:21:05.253Z,974.53
2018-04-28T08:22:05.262Z,974.61
2018-04-28T08:23:05.836Z,974.44
2018-04-28T08:24:06.000Z,974.44
2018-04-28T08:25:05.012Z,974.44
2018-04-28T08:26:06.166Z,974.44
2018-04-28T08:27:05.989Z,974.61
2018-04-28T08:28:06.274Z,974.47
2018-04-28T08:29:05.355Z,974.47
2018-04-28T08:30:05.504Z,974.56
2018-04-28T08:31:05.552Z,974.50
2018-04-28T08:32:05.724Z,974.50
2018-04-28T08:33:05.786Z,974.47
2018-04-28T08:34:05.942Z,974.47
2018-04-28T08:35:05.381Z,974.47
2018-04-28T08:36:05.436Z,974.53
2018-04-28T08:37:05.302Z,974.35
2018-04-28T08:38:05.914Z,974.41
2018-04-28T08:39:05.296Z,974.47
2018-04-28T08:40:05.989Z,974.38
2018-04-28T08:41:05.824Z,974.41
2018-04-28T08:42:06.435Z,974.50
2018-04-28T08:43:05.092Z,974.52
2018-04-28T08:44:06.040Z,974.49
2018-04-28T08:45:06.036Z,974.46
2018-04-28T08:46:05.746Z,974.44
2018-04-28T08:47:05.178Z,974.49
2018-04-28T08:48:10.295Z,974.43
2018-04-28T08:49:05.215Z,974.49
2018-04-28T08:50:04.950Z,974.55
2018-04-28T08:51:10.771Z,974.40
2018-04-28T08:52:05.064Z,974.43
2018-04-28T08:53:05.938Z,974.38
2018-04-28T08:54:05.245Z,974.43
2018-04-28T08:55:05.256Z,974.37
2018-04-28T08:56:05.412Z,974.34
2018-04-28T08:57:05.463Z,974.43
2018-04-28T08:58:05.155Z,974.46
2018-04-28T08:59:05.325Z,974.46
2018-04-28T09:00:05.225Z,974.40
2018-04-28T09:01:05.029Z,974.32
2018-04-28T09:02:06.381Z,974.49
2018-04-28T09:03:05.481Z,974.43
2018-04-28T09:04:05.466Z,974.43
2018-04-28T09:05:05.464Z,974.37
2018-04-28T09:06:05.959Z,974.37
2018-04-28T09:07:10.931Z,974.38
2018-04-28T09:08:06.328Z,974.32
2018-04-28T09:09:05.473Z,974.49
2018-04-28T09:10:05.449Z,974.38
2018-04-28T09:11:05.652Z,974.32
2018-04-28T09:12:10.650Z,974.38
2018-04-28T09:13:05.848Z,974.29
2018-04-28T09:14:05.106Z,974.38
2018-04-28T09:15:05.459Z,974.47
2018-04-28T09:16:05.319Z,974.38
2018-04-28T09:17:05.473Z,974.32
2018-04-28T09:18:05.198Z,974.35
2018-04-28T09:19:05.128Z,974.38
2018-04-28T09:20:07.110Z,974.32
2018-04-28T09:21:04.964Z,974.44
2018-04-28T09:22:06.243Z,974.35
2018-04-28T09:23:05.699Z,974.32
2018-04-28T09:24:05.818Z,974.49
2018-04-28T09:25:05.955Z,974.49
2018-04-28T09:26:05.794Z,974.41
2018-04-28T09:27:05.689Z,974.37
2018-04-28T09:28:05.489Z,974.49
2018-04-28T09:29:06.341Z,974.49
2018-04-28T09:30:05.607Z,974.49
2018-04-28T09:31:05.678Z,974.26
2018-04-28T09:32:05.993Z,974.20
2018-04-28T09:33:06.143Z,974.40
2018-04-28T09:34:05.298Z,974.35
2018-04-28T09:35:05.390Z,974.26
2018-04-28T09:36:05.371Z,974.23
2018-04-28T09:37:05.518Z,974.35
2018-04-28T09:38:05.656Z,974.18
2018-04-28T09:39:05.906Z,974.15
2018-04-28T09:40:05.672Z,974.35
2018-04-28T09:41:05.558Z,974.30
2018-04-28T09:42:11.074Z,974.35
2018-04-28T09:43:05.374Z,974.18
2018-04-28T09:44:05.579Z,974.32
2018-04-28T09:45:05.562Z,974.20
2018-04-28T09:46:05.308Z,974.32
2018-04-28T09:47:05.646Z,974.35
2018-04-28T09:48:05.464Z,974.26
2018-04-28T09:49:11.131Z,974.37
2018-04-28T09:50:10.253Z,974.40
2018-04-28T09:51:05.531Z,974.31
2018-04-28T09:52:05.832Z,974.23
2018-04-28T09:53:06.118Z,974.28
2018-04-28T09:54:05.263Z,974.34
2018-04-28T09:55:05.832Z,974.28
2018-04-28T09:56:05.319Z,974.34
2018-04-28T09:57:10.606Z,974.28
2018-04-28T09:58:05.730Z,974.34
2018-04-28T09:59:05.811Z,974.14
2018-04-28T10:00:05.371Z,974.25
2018-04-28T10:01:05.824Z,974.40
2018-04-28T10:02:05.179Z,974.31
2018-04-28T10:03:05.329Z,974.28
2018-04-28T10:04:05.126Z,974.25
2018-04-28T10:05:05.750Z,974.25
2018-04-28T10:06:05.592Z,974.19
2018-04-28T10:07:06.032Z,974.28
2018-04-28T10:08:06.620Z,974.39
2018-04-28T10:09:05.144Z,974.27
2018-04-28T10:10:05.491Z,974.18
2018-04-28T10:11:05.642Z,974.18
2018-04-28T10:12:05.806Z,974.24
2018-04-28T10:13:05.124Z,974.27
2018-04-28T10:14:05.910Z,974.09
2018-04-28T10:15:05.402Z,974.18
2018-04-28T10:16:05.191Z,974.12
2018-04-28T10:17:16.064Z,974.26
2018-04-28T10:18:05.921Z,974.06
2018-04-28T10:19:05.653Z,974.17
2018-04-28T10:20:05.701Z,974.17
2018-04-28T10:21:05.168Z,974.17
2018-04-28T10:22:05.519Z,974.17
2018-04-28T10:23:05.191Z,974.11
2018-04-28T10:24:06.572Z,974.20
2018-04-28T10:25:05.487Z,974.05
2018-04-28T10:26:05.615Z,974.17
2018-04-28T10:27:05.722Z,974.08
2018-04-28T10:28:05.889Z,974.17
2018-04-28T10:29:06.090Z,974.11
2018-04-28T10:30:05.066Z,974.13
2018-04-28T10:31:10.208Z,974.08
2018-04-28T10:32:05.078Z,974.08
2018-04-28T10:33:05.154Z,974.02
2018-04-28T10:34:05.061Z,974.08
2018-04-28T10:35:05.211Z,974.07
2018-04-28T10:36:05.332Z,974.02
2018-04-28T10:37:05.421Z,973.93
2018-04-28T10:38:05.243Z,974.13
2018-04-28T10:39:05.052Z,973.95
2018-04-28T10:40:05.745Z,974.01
2018-04-28T10:41:05.140Z,973.98
2018-04-28T10:42:05.899Z,974.04
2018-04-28T10:43:05.695Z,974.07
2018-04-28T10:44:05.653Z,973.98
2018-04-28T10:45:05.940Z,974.01
2018-04-28T10:46:05.661Z,973.92
2018-04-28T10:47:05.735Z,973.97
2018-04-28T10:48:05.663Z,973.97
2018-04-28T10:49:05.386Z,973.86
2018-04-28T10:50:05.091Z,973.88
2018-04-28T10:51:06.001Z,973.82
2018-04-28T10:52:05.010Z,973.88
2018-04-28T10:53:05.095Z,973.74
2018-04-28T10:54:05.126Z,973.79
2018-04-28T10:55:05.180Z,973.82
2018-04-28T10:56:05.674Z,973.82
2018-04-28T10:57:05.623Z,973.73
2018-04-28T10:58:05.866Z,973.82
2018-04-28T10:59:05.817Z,973.82
2018-04-28T11:00:05.995Z,973.70
2018-04-28T11:01:05.320Z,973.76
2018-04-28T11:02:05.376Z,973.61
2018-04-28T11:03:05.106Z,973.76
2018-04-28T11:04:05.229Z,973.76
2018-04-28T11:05:05.177Z,973.76
2018-04-28T11:06:05.475Z,973.67
2018-04-28T11:07:05.758Z,973.70
2018-04-28T11:08:05.749Z,973.70
2018-04-28T11:09:06.020Z,973.69
2018-04-28T11:10:05.103Z,973.70
2018-04-28T11:11:05.715Z,973.70
2018-04-28T11:12:05.530Z,973.53
2018-04-28T11:13:05.962Z,973.72
2018-04-28T11:14:05.669Z,973.69
2018-04-28T11:15:05.172Z,973.63
2018-04-28T11:16:05.597Z,973.81
2018-04-28T11:17:05.303Z,973.78
2018-04-28T11:18:06.023Z,973.66
2018-04-28T11:19:05.553Z,973.64
2018-04-28T11:20:05.922Z,973.64
2018-04-28T11:21:05.239Z,973.69
2018-04-28T11:22:04.949Z,973.64
2018-04-28T11:23:05.129Z,973.64
2018-04-28T11:24:06.344Z,973.58
2018-04-28T11:25:05.345Z,973.72
2018-04-28T11:26:05.743Z,973.58
2018-04-28T11:27:05.007Z,973.48
2018-04-28T11:28:05.997Z,973.45
2018-04-28T11:29:05.796Z,973.53
2018-04-28T11:30:05.624Z,973.50
2018-04-28T11:31:05.430Z,973.53
2018-04-28T11:32:05.382Z,973.53
2018-04-28T11:33:05.173Z,973.48
2018-04-28T11:34:06.103Z,973.36
2018-04-28T11:35:05.682Z,973.44
2018-04-28T11:36:10.151Z,973.39
2018-04-28T11:37:05.393Z,973.50
2018-04-28T11:38:04.949Z,973.53
2018-04-28T11:39:06.851Z,973.53
2018-04-28T11:40:05.653Z,973.50
2018-04-28T11:41:05.400Z,973.47
2018-04-28T11:42:05.757Z,973.41
2018-04-28T11:43:05.615Z,973.44
2018-04-28T11:44:05.156Z,973.44
2018-04-28T11:45:05.829Z,973.47
2018-04-28T11:46:10.529Z,973.44
2018-04-28T11:47:05.585Z,973.58
2018-04-28T11:48:05.251Z,973.41
2018-04-28T11:49:06.547Z,973.67
2018-04-28T11:50:05.615Z,973.61
2018-04-28T11:51:05.274Z,973.45
2018-04-28T11:52:10.407Z,973.54
2018-04-28T11:53:05.704Z,973.54
2018-04-28T11:54:05.226Z,973.48
2018-04-28T11:55:05.287Z,973.51
2018-04-28T11:56:05.351Z,973.52
2018-04-28T11:57:05.515Z,973.57
2018-04-28T11:58:05.431Z,973.46
2018-04-28T11:59:05.615Z,973.52
2018-04-28T12:00:05.655Z,973.47
2018-04-28T12:01:05.852Z,973.50
2018-04-28T12:02:05.953Z,973.47
2018-04-28T12:03:05.183Z,973.55
2018-04-28T12:04:05.477Z,973.50
2018-04-28T12:05:05.517Z,973.45
2018-04-28T12:06:05.733Z,973.54
2018-04-28T12:07:05.715Z,973.54
2018-04-28T12:08:05.437Z,973.42
2018-04-28T12:09:05.343Z,973.48
2018-04-28T12:10:06.204Z,973.33
2018-04-28T12:11:05.666Z,973.45
2018-04-28T12:12:05.833Z,973.39
2018-04-28T12:13:05.922Z,973.48
2018-04-28T12:14:05.935Z,973.48
2018-04-28T12:15:06.065Z,973.45
2018-04-28T12:16:05.038Z,973.42
2018-04-28T12:17:05.286Z,973.48
2018-04-28T12:18:05.279Z,973.42
2018-04-28T12:19:05.745Z,973.44
2018-04-28T12:20:05.466Z,973.45
2018-04-28T12:21:06.012Z,973.36
2018-04-28T12:22:06.022Z,973.39
2018-04-28T12:23:05.588Z,973.47
2018-04-28T12:24:05.523Z,973.50
2018-04-28T12:25:05.596Z,973.55
2018-04-28T12:26:05.398Z,973.53
2018-04-28T12:27:05.268Z,973.50
2018-04-28T12:28:05.251Z,973.38